Latest Coastal Weather Observations for Bowen Airport AWS

IDQ60701

Issued at 2:32 pm EST Tuesday 26 May 2020 (issued every 10 minutes, with the page automatically refreshed every 10 minutes)

About coastal observations | Map of coastal stations | Coastal observations for QLD | Marine services | Other Formats
Station Details ID: 033327 Name: BOWEN AIRPORT AWS Lat: -20.02 Lon: 148.21 Height: 5.9 m
Data from the previous 72 hours. | See also: Recent months at Bowen Airport AWS
Date/Time
EST
Wind Sea
Height
m
Swell Vis
km
Cloud Weather Temp
°C
Press
hPa
Rain since
9am
mm
Dir  Spd
kts
Gust
kts
Height
m
Period
s
Dir
26/02:30pm NE 7 10 - - - - - - - 22.8 1017.5 0.2
26/02:00pm ENE 7 10 - - - - - - - 23.0 1017.8 0.2
26/01:30pm E 7 10 - - - - - - - 23.0 1018.1 0.2
26/01:00pm E 5 8 - - - - - - - 22.5 1018.4 0.2
26/12:30pm E 7 9 - - - - - - - 22.5 1018.8 0.2
26/12:00pm ESE 6 8 - - - - - - - 22.5 1019.4 0.2
26/11:30am ESE 6 8 - - - - - - - 21.8 1019.8 0.2
26/11:00am ESE 7 9 - - - - - - - 21.7 1020.1 0.2
26/10:30am SE 5 8 - - - - - - - 21.5 1020.2 0.2
26/10:00am SSE 2 6 - - - - - - - 20.5 1020.3 0.0
26/09:30am SW 2 4 - - - - - - - 18.4 1020.2 0.0
26/09:00am SW 3 4 - - - - - - - 16.2 1020.1 -
26/08:30am SW 5 6 - - - - - - - 14.2 1020.0 -
26/08:00am SW 4 5 - - - - - - - 12.3 1019.7 -
26/07:30am SW 5 6 - - - - - - - 10.7 1019.5 -
26/07:00am SW 6 7 - - - - - - - 9.3 1019.4 -
26/06:30am SW 6 7 - - - - - - - 8.4 1019.2 -
26/06:00am SW 7 8 - - - - - - - 8.9 1018.9 -
26/05:30am SW 6 7 - - - - - - - 8.8 1018.4 -
26/05:00am SW 6 8 - - - - - - - 9.0 1018.2 -
26/04:30am SW 6 7 - - - - - - - 9.1 1018.3 -
26/04:00am SW 6 7 - - - - - - - 8.8 1018.2 -
26/03:30am SW 5 6 - - - - - - - 9.0 1017.9 -
26/03:00am SW 4 5 - - - - - - - 8.9 1017.9 0.0
26/02:30am SW 5 6 - - - - - - - 9.4 1018.2 -
26/02:00am SW 5 6 - - - - - - - 9.5 1018.4 -
26/01:30am SW 2 4 - - - - - - - 10.4 1018.6 -
26/01:00am SW 8 9 - - - - - - - 10.6 1018.7 -
26/12:30am SW 6 8 - - - - - - - 10.6 1018.8 -
26/12:00am SW 5 7 - - - - - - - 10.6 1018.9 -
 
Date/Time
EST
Wind Sea
Height
m
Swell Vis
km
Cloud Weather Temp
°C
Press
hPa
Rain since
9am
mm
Dir  Spd
kts
Gust
kts
Height
m
Period
s
Dir
25/11:30pm SW 3 5 - - - - - - - 10.7 1019.0 -
25/11:00pm SW 6 7 - - - - - - - 11.0 1019.0 -
25/10:30pm SW 5 7 - - - - - - - 11.1 1019.3 -
25/10:00pm CALM 0 0 - - - - - - - 12.3 1019.4 -
25/09:30pm N 1 2 - - - - - - - 12.1 1019.2 -
25/09:00pm N 4 5 - - - - - - - 12.0 1019.0 -
25/08:30pm N 3 4 - - - - - - - 13.1 1018.8 -
25/08:00pm N 4 4 - - - - - - - 12.6 1018.3 -
25/07:30pm CALM 0 0 - - - - - - - 14.1 1018.0 -
25/07:00pm CALM 0 0 - - - - - - - 14.4 1017.6 -
25/06:30pm N 2 2 - - - - - - - 15.6 1017.1 -
25/06:00pm N 2 2 - - - - - - - 17.2 1016.7 -
25/05:30pm - - - - - - - - - - 18.8 1016.5 -
25/03:30pm NNE 6 9 - - - - - - - 21.5 1015.9 0.0
25/03:00pm NNE 6 11 - - - - - - - 22.0 1015.9 0.0
25/02:30pm NNE 6 11 - - - - - - - 22.2 1016.2 0.0
25/02:00pm NNE 7 11 - - - - - - - 21.8 1016.4 0.0
25/01:30pm NNE 7 12 - - - - - - - 22.0 1016.8 0.0
25/01:00pm NE 6 8 - - - - - - - 21.9 1017.3 0.0
25/12:30pm ENE 5 9 - - - - - - - 21.4 1017.8 0.0
25/12:00pm E 6 9 - - - - - - - 21.1 1017.9 0.0
25/11:30am ESE 6 8 - - - - - - - 20.7 1018.3 0.0
25/11:00am ESE 6 8 - - - - - - - 20.2 1018.6 0.0
25/10:30am ESE 6 7 - - - - - - - 19.6 1018.7 0.0
25/10:00am SSE 4 7 - - - - - - - 19.5 1018.9 0.0
25/09:30am SW 6 8 - - - - - - - 17.9 1018.9 0.0
25/09:00am SW 7 10 - - - - - - - 16.1 1018.7 0.0
25/08:30am SSW 5 7 - - - - - - - 14.6 1018.5 0.0
25/08:00am SW 5 7 - - - - - - - 12.7 1018.3 0.0
25/07:30am SW 6 7 - - - - - - - 11.1 1018.1 0.0
25/07:00am SW 2 3 - - - - - - - 8.9 1017.8 0.0
25/06:30am CALM 0 1 - - - - - - - 8.1 1017.6 0.0
25/06:00am SW 4 5 - - - - - - - 7.9 1017.2 0.0
25/05:30am SW 2 4 - - - - - - - 8.5 1016.9 0.0
25/05:00am SW 6 6 - - - - - - - 8.2 1016.8 0.0
25/04:30am SW 6 7 - - - - - - - 8.5 1016.7 0.0
25/04:00am SW 6 7 - - - - - - - 8.2 1016.7 0.0
25/03:30am SW 6 7 - - - - - - - 8.3 1016.8 0.0
25/03:00am SW 6 7 - - - - - - - 8.6 1016.6 0.0
25/02:30am SW 6 7 - - - - - - - 9.0 1016.6 0.0
25/02:00am SW 6 7 - - - - - - - 8.9 1016.9 0.0
25/01:30am WSW 3 5 - - - - - - - 9.1 1016.9 0.0
25/01:00am WSW 3 3 - - - - - - - 10.2 1017.0 0.0
25/12:30am WSW 5 6 - - - - - - - 10.2 1017.0 0.0
25/12:00am SSW 1 3 - - - - - - - 10.9 1017.0 0.0
 
Date/Time
EST
Wind Sea
Height
m
Swell Vis
km
Cloud Weather Temp
°C
Press
hPa
Rain since
9am
mm
Dir  Spd
kts
Gust
kts
Height
m
Period
s
Dir
24/11:30pm SSW 1 2 - - - - - - - 11.3 1017.1 0.0
24/11:00pm SSW 7 9 - - - - - - - 10.7 1017.2 0.0
24/10:30pm SSW 7 8 - - - - - - - 10.6 1017.4 0.0
24/10:00pm SW 6 7 - - - - - - - 10.7 1017.6 0.0
24/09:30pm SW 5 6 - - - - - - - 11.6 1017.6 0.0
24/09:00pm SW 3 4 - - - - - - - 12.6 1017.5 0.0
24/08:30pm SW 5 6 - - - - - - - 12.2 1017.4 0.0
24/08:00pm CALM 0 1 - - - - - - - 13.3 1017.0 0.0
24/07:30pm SSW 4 5 - - - - - - - 12.5 1016.4 0.0
24/07:00pm SSW 2 3 - - - - - - - 13.9 1016.3 0.0
24/06:30pm SSW 4 4 - - - - - - - 14.8 1015.7 0.0
24/06:00pm SSW 4 5 - - - - - - - 16.4 1015.3 0.0
24/05:30pm SSW 4 6 - - - - - - - 17.2 1015.0 0.0
24/05:00pm SSW 7 9 - - - - - - - 19.3 1014.5 0.0
24/04:30pm SSW 7 9 - - - - - - - 20.4 1014.0 0.0
24/04:00pm SW 11 15 - - - - - - - 20.9 1013.9 0.0
24/03:30pm SSW 10 14 - - - - - - - 21.1 1013.6 0.0
24/03:00pm SW 10 14 - - - - - - - 21.6 1013.6 0.0
24/02:30pm SW 11 16 - - - - - - - 21.8 1013.9 0.0
24/02:00pm SW 12 16 - - - - - - - 21.3 1014.0 0.0
24/01:30pm SW 14 19 - - - - - - - 21.2 1014.2 0.0
24/01:00pm SSW 12 17 - - - - - - - 21.3 1014.4 0.0
24/12:30pm SSW 13 17 - - - - - - - 20.8 1015.1 0.0
24/12:00pm SSW 14 19 - - - - - - - 19.8 1015.9 0.0
24/11:30am SW 13 20 - - - - - - - 19.4 1016.3 0.0
24/11:00am SSW 14 18 - - - - - - - 18.7 1016.8 0.0
24/10:30am SW 12 16 - - - - - - - 18.4 1017.5 0.0
24/10:00am SW 12 16 - - - - - - - 17.4 1017.7 0.0
24/09:30am SW 11 15 - - - - - - - 16.4 1017.3 0.0
24/09:00am SW 12 15 - - - - - - - 15.2 1017.3 0.0
24/08:30am SW 10 14 - - - - - - - 14.1 1017.3 0.0
24/08:00am SW 10 13 - - - - - - - 13.1 1016.9 0.0
24/07:30am SW 9 11 - - - - - - - 11.7 1016.7 0.0
24/07:00am SW 8 9 - - - - - - - 10.1 1016.5 0.0
24/06:30am SW 8 11 - - - - - - - 10.1 1015.9 0.0
24/06:00am SW 10 13 - - - - - - - 10.6 1014.9 0.0
24/05:30am SW 10 13 - - - - - - - 10.8 1014.9 0.0
24/05:00am SW 10 13 - - - - - - - 10.8 1014.8 0.0
24/04:30am SSW 10 13 - - - - - - - 10.9 1014.2 0.0
24/04:00am SW 9 12 - - - - - - - 11.2 1014.9 0.0
24/03:30am SW 8 11 - - - - - - - 11.3 1014.4 0.0
24/03:10am SSW 8 10 - - - - - - - 11.3 1015.1 0.0
24/03:04am SW 8 9 - - - - - - - 11.2 1013.1 0.0
24/03:00am SW 7 9 - - - - - - - 11.1 1015.4 0.0
24/02:30am SSW 5 7 - - - - - - - 10.8 1015.1 0.0
24/02:00am SSW 6 9 - - - - - - - 11.2 1015.2 0.0
24/01:30am SSW 9 12 - - - - - - - 11.6 1014.4 0.0
24/01:00am SSW 5 8 - - - - - - - 11.7 1015.4 0.0
24/12:30am SSW 10 13 - - - - - - - 12.0 1014.7 0.0
24/12:00am SW 11 16 - - - - - - - 12.0 1016.1 0.0
 
Date/Time
EST
Wind Sea
Height
m
Swell Vis
km
Cloud Weather Temp
°C
Press
hPa
Rain since
9am
mm
Dir  Spd
kts
Gust
kts
Height
m
Period
s
Dir
23/11:30pm SW 10 13 - - - - - - - 12.1 1015.7 0.0
23/11:00pm SW 9 13 - - - - - - - 12.2 1016.0 0.0
23/10:30pm SSW 9 12 - - - - - - - 12.2 1015.7 0.0
23/10:00pm SW 11 16 - - - - - - - 12.5 1016.7 0.0
23/09:30pm SW 13 17 - - - - - - - 12.6 1016.2 0.0
23/09:12pm SW 11 16 - - - - - - - 12.9 1016.8 0.0
23/09:00pm SW 7 12 - - - - - - - 12.8 1014.8 0.0
23/08:59pm SW 8 13 - - - - - - - 12.8 1014.6 0.0
23/08:30pm SW 10 17 - - - - - - - 12.9 1016.6 0.0
23/08:00pm S 6 9 - - - - - - - 12.9 1014.9 0.0
23/07:51pm SSW 8 13 - - - - - - - 13.0 1014.7 0.0
23/07:30pm SW 9 12 - - - - - - - 13.0 1016.8 0.0
23/07:27pm SW 8 11 - - - - - - - 12.9 1016.9 0.0
23/07:00pm SSW 8 12 - - - - - - - 12.8 1014.8 0.0
23/06:30pm SW 13 16 - - - - - - - 12.8 1015.3 0.0
23/06:00pm WSW 7 10 - - - - - - - 13.1 1014.7 0.0
23/05:30pm SSW 5 8 - - - - - - - 13.1 1013.8 0.0
23/05:00pm SSW 7 9 - - - - - - - 13.4 1014.3 0.0
23/04:30pm SW 4 6 - - - - - - - 13.7 1014.7 0.0
23/04:00pm SSW 6 8 - - - - - - - 13.7 1014.5 0.0
23/03:30pm SSW 7 9 - - - - - - - 13.7 1014.0 0.0
23/03:00pm SW 8 11 - - - - - - - 13.7 1014.6 0.0

Other formats

Comma delimited format used in spreadsheet applications
http://www.bom.gov.au/fwo/IDQ60701/IDQ60701.94383.axf

JavaScript Object Notation format (JSON) in row-major order
http://www.bom.gov.au/fwo/IDQ60701/IDQ60701.94383.json

Data quality

Most of these data are generated automatically and are frequently updated. Quality checks on data are not normally performed. It is possible for incorrect values to appear. Refer to information at About Latest Weather Observations and please check the disclaimer before using these data.